createdAt,value
2018-08-16T00:00:58.957Z,8.17
2018-08-16T00:03:28.480Z,7.80
2018-08-16T00:05:58.496Z,7.83
2018-08-16T00:08:28.104Z,7.37
2018-08-16T00:10:57.655Z,7.03
2018-08-16T00:13:27.193Z,7.43
2018-08-16T00:15:56.708Z,7.00
2018-08-16T00:18:26.291Z,6.63
2018-08-16T00:20:55.868Z,6.77
2018-08-16T00:23:25.435Z,6.00
2018-08-16T00:25:54.964Z,7.57
2018-08-16T00:28:24.621Z,8.40
2018-08-16T00:30:54.213Z,7.27
2018-08-16T00:33:23.803Z,7.40
2018-08-16T00:35:53.444Z,7.17
2018-08-16T00:38:23.180Z,6.60
2018-08-16T00:40:52.801Z,6.43
2018-08-16T00:43:22.355Z,7.23
2018-08-16T00:45:51.942Z,6.80
2018-08-16T00:48:21.611Z,7.10
2018-08-16T00:50:51.222Z,7.00
2018-08-16T00:53:20.795Z,7.67
2018-08-16T00:55:50.441Z,7.30
2018-08-16T00:58:20.021Z,7.30
2018-08-16T01:00:49.756Z,7.20
2018-08-16T01:03:19.319Z,7.87
2018-08-16T01:05:48.936Z,9.00
2018-08-16T01:08:18.617Z,8.60
2018-08-16T01:10:48.392Z,8.50
2018-08-16T01:13:18.059Z,7.07
2018-08-16T01:15:47.816Z,7.60
2018-08-16T01:18:17.745Z,7.40
2018-08-16T01:20:47.421Z,7.53
2018-08-16T01:23:17.229Z,7.27
2018-08-16T01:25:46.889Z,7.60
2018-08-16T01:28:16.605Z,6.83
2018-08-16T01:30:46.330Z,7.67
2018-08-16T01:33:16.053Z,7.57
2018-08-16T01:35:45.819Z,7.77
2018-08-16T01:38:15.415Z,7.50
2018-08-16T01:40:45.142Z,6.30
2018-08-16T01:43:14.762Z,7.10
2018-08-16T01:45:44.444Z,8.30
2018-08-16T01:48:14.371Z,7.20
2018-08-16T01:50:44.013Z,6.80
2018-08-16T01:53:13.698Z,8.50
2018-08-16T01:55:43.305Z,8.33
2018-08-16T01:58:13.137Z,8.70
2018-08-16T02:00:42.813Z,8.23
2018-08-16T02:03:12.424Z,7.23
2018-08-16T02:05:42.221Z,8.23
2018-08-16T02:08:11.942Z,7.73
2018-08-16T02:10:41.640Z,8.10
2018-08-16T02:13:11.470Z,9.20
2018-08-16T02:15:41.224Z,15.40
2018-08-16T02:18:10.998Z,13.90
2018-08-16T02:20:40.601Z,15.23
2018-08-16T02:23:10.290Z,10.03
2018-08-16T02:25:39.922Z,10.93
2018-08-16T02:28:09.624Z,9.80
2018-08-16T02:30:39.419Z,10.10
2018-08-16T02:33:09.562Z,10.07
2018-08-16T02:35:39.199Z,8.40
2018-08-16T02:38:08.847Z,9.80
2018-08-16T02:40:38.611Z,10.37
2018-08-16T02:43:08.234Z,9.30
2018-08-16T02:45:38.116Z,8.90
2018-08-16T02:48:07.725Z,9.90
2018-08-16T02:50:37.404Z,8.77
2018-08-16T02:53:07.254Z,8.20
2018-08-16T02:55:36.958Z,8.97
2018-08-16T02:58:06.634Z,8.33
2018-08-16T03:00:36.257Z,8.93
2018-08-16T03:03:06.131Z,9.57
2018-08-16T03:05:35.787Z,10.33
2018-08-16T03:08:05.449Z,9.50
2018-08-16T03:10:35.078Z,9.40
2018-08-16T03:13:04.769Z,10.13
2018-08-16T03:15:34.743Z,9.20
2018-08-16T03:18:04.420Z,13.40
2018-08-16T03:20:34.162Z,10.57
2018-08-16T03:23:03.817Z,15.30
2018-08-16T03:25:33.417Z,14.73
2018-08-16T03:28:03.034Z,16.07
2018-08-16T03:30:32.734Z,14.80
2018-08-16T03:33:02.474Z,16.20
2018-08-16T03:35:32.123Z,17.80
2018-08-16T03:38:01.933Z,22.27
2018-08-16T03:40:31.621Z,16.20
2018-08-16T03:43:01.219Z,19.27
2018-08-16T03:45:31.057Z,16.00
2018-08-16T03:48:00.641Z,17.80
2018-08-16T03:50:30.283Z,19.57
2018-08-16T03:52:59.903Z,16.80
2018-08-16T03:55:29.602Z,18.47
2018-08-16T03:57:59.306Z,17.77
2018-08-16T04:00:28.906Z,15.50
2018-08-16T04:02:58.472Z,17.40
2018-08-16T04:05:28.100Z,13.43
2018-08-16T04:07:57.810Z,13.20
2018-08-16T04:10:27.446Z,10.70
2018-08-16T04:12:57.045Z,11.10
2018-08-16T04:15:26.663Z,11.03
2018-08-16T04:17:56.281Z,10.50
2018-08-16T04:20:25.859Z,9.80
2018-08-16T04:22:55.486Z,9.63
2018-08-16T04:25:25.175Z,10.07
2018-08-16T04:27:54.799Z,9.97
2018-08-16T04:30:24.491Z,8.70
2018-08-16T04:32:54.190Z,8.37
2018-08-16T04:35:24.047Z,8.63
2018-08-16T04:37:53.873Z,8.40
2018-08-16T04:40:23.617Z,7.93
2018-08-16T04:42:53.373Z,8.00
2018-08-16T04:45:22.982Z,7.73
2018-08-16T04:47:52.590Z,7.60
2018-08-16T04:50:22.249Z,8.17
2018-08-16T04:52:51.860Z,7.60
2018-08-16T04:55:21.601Z,7.70
2018-08-16T04:57:51.258Z,8.07
2018-08-16T05:00:20.989Z,7.57
2018-08-16T05:02:50.659Z,7.97
2018-08-16T05:05:20.370Z,8.57
2018-08-16T05:07:49.984Z,9.00
2018-08-16T05:10:19.644Z,9.07
2018-08-16T05:12:49.251Z,9.30
2018-08-16T05:15:18.984Z,9.80
2018-08-16T05:17:48.578Z,8.63
2018-08-16T05:20:18.202Z,8.00
2018-08-16T05:22:47.838Z,9.93
2018-08-16T05:25:17.441Z,9.70
2018-08-16T05:27:47.033Z,8.07
2018-08-16T05:30:16.719Z,8.97
2018-08-16T05:32:46.327Z,8.10
2018-08-16T05:35:15.924Z,8.37
2018-08-16T05:37:45.571Z,7.97
2018-08-16T05:40:15.253Z,7.43
2018-08-16T05:42:44.852Z,8.27
2018-08-16T05:45:14.524Z,6.70
2018-08-16T05:47:44.191Z,7.20
2018-08-16T05:50:13.972Z,7.50
2018-08-16T05:52:43.616Z,5.83
2018-08-16T05:55:13.230Z,6.10
2018-08-16T05:57:43.382Z,6.17
2018-08-16T06:00:14.435Z,5.50
2018-08-16T06:02:44.113Z,5.90
2018-08-16T06:05:13.838Z,5.93
2018-08-16T06:07:43.730Z,5.30
2018-08-16T06:10:13.346Z,4.90
2018-08-16T06:12:43.052Z,5.83
2018-08-16T06:15:12.753Z,5.57
2018-08-16T06:17:42.346Z,4.47
2018-08-16T06:20:12.782Z,5.07
2018-08-16T06:22:42.484Z,4.60
2018-08-16T06:25:13.894Z,4.10
2018-08-16T06:27:44.292Z,4.43
2018-08-16T06:30:17.268Z,4.87
2018-08-16T06:32:47.177Z,4.70
2018-08-16T06:35:17.019Z,5.33
2018-08-16T06:37:46.767Z,5.57
2018-08-16T06:40:17.930Z,5.43
2018-08-16T06:42:48.517Z,5.50
2018-08-16T06:45:18.263Z,4.67
2018-08-16T06:47:47.918Z,3.90
2018-08-16T06:50:17.643Z,3.37
2018-08-16T06:52:47.322Z,3.27
2018-08-16T06:55:17.103Z,3.63
2018-08-16T06:57:46.899Z,3.20
2018-08-16T07:00:16.710Z,3.73
2018-08-16T07:02:46.437Z,3.07
2018-08-16T07:05:16.326Z,2.90
2018-08-16T07:07:46.027Z,2.73
2018-08-16T07:10:15.762Z,2.30
2018-08-16T07:12:45.434Z,3.20
2018-08-16T07:15:16.277Z,2.60
2018-08-16T07:17:46.067Z,2.50
2018-08-16T07:20:15.749Z,2.73
2018-08-16T07:22:45.374Z,2.30
2018-08-16T07:25:14.962Z,1.90
2018-08-16T07:27:44.581Z,1.30
2018-08-16T07:30:14.208Z,1.90
2018-08-16T07:32:43.802Z,1.67
2018-08-16T07:35:13.493Z,2.10
2018-08-16T07:37:43.106Z,2.00
2018-08-16T07:40:12.797Z,1.87
2018-08-16T07:42:42.449Z,1.80
2018-08-16T07:45:12.425Z,1.63
2018-08-16T07:47:42.034Z,1.90
2018-08-16T07:50:12.105Z,1.60
2018-08-16T07:52:41.954Z,1.70
2018-08-16T07:55:11.918Z,1.80
2018-08-16T07:57:41.638Z,2.80
2018-08-16T08:00:17.281Z,1.77
2018-08-16T08:02:47.350Z,2.00
2018-08-16T08:05:17.025Z,1.93
2018-08-16T08:07:46.680Z,2.23
2018-08-16T08:10:16.378Z,2.03
2018-08-16T08:12:46.060Z,1.90
2018-08-16T08:15:16.225Z,2.30
2018-08-16T08:17:45.878Z,2.37
2018-08-16T08:20:16.937Z,2.07
2018-08-16T08:22:46.544Z,2.13
2018-08-16T08:25:16.372Z,2.03
2018-08-16T08:27:46.055Z,2.30
2018-08-16T08:30:17.153Z,2.00
2018-08-16T08:32:46.758Z,1.87
2018-08-16T08:35:16.543Z,1.80
2018-08-16T08:38:02.769Z,1.73
2018-08-16T08:40:32.402Z,1.50
2018-08-16T08:43:02.088Z,1.60
2018-08-16T08:45:31.767Z,1.53
2018-08-16T08:48:01.460Z,1.70
2018-08-16T08:50:31.197Z,1.60
2018-08-16T08:53:17.963Z,1.40
2018-08-16T08:56:04.560Z,1.80
2018-08-16T08:58:52.631Z,1.67
2018-08-16T09:01:22.277Z,1.27
2018-08-16T09:03:54.955Z,1.63
2018-08-16T09:06:24.602Z,1.00
2018-08-16T09:08:54.290Z,1.30
2018-08-16T09:12:39.511Z,1.27
2018-08-16T09:15:26.077Z,1.27
2018-08-16T09:17:55.688Z,1.03
2018-08-16T09:20:25.313Z,1.50
2018-08-16T09:22:54.952Z,1.27
2018-08-16T09:25:24.613Z,1.30
2018-08-16T09:27:54.263Z,1.00
2018-08-16T09:30:41.688Z,1.20
2018-08-16T09:33:28.159Z,1.50
2018-08-16T09:35:57.841Z,1.20
2018-08-16T09:38:27.435Z,1.50
2018-08-16T09:40:57.061Z,1.33
2018-08-16T09:43:26.685Z,1.50
2018-08-16T09:47:11.613Z,1.30
2018-08-16T09:49:44.106Z,1.33
2018-08-16T09:52:14.442Z,1.03
2018-08-16T09:54:44.109Z,1.50
2018-08-16T09:57:15.065Z,1.30
2018-08-16T09:59:45.314Z,1.10
2018-08-16T10:02:17.127Z,0.87
2018-08-16T10:04:46.650Z,0.80
2018-08-16T10:07:16.279Z,0.90
2018-08-16T10:09:45.937Z,1.13
2018-08-16T10:12:15.532Z,1.10
2018-08-16T10:14:45.165Z,0.90
2018-08-16T10:17:14.797Z,1.30
2018-08-16T10:19:44.485Z,1.00
2018-08-16T10:22:14.179Z,1.20
2018-08-16T10:24:43.838Z,1.50
2018-08-16T10:27:13.498Z,1.23
2018-08-16T10:29:43.256Z,1.30
2018-08-16T10:32:12.941Z,1.07
2018-08-16T10:34:42.562Z,1.17
2018-08-16T10:37:12.431Z,1.27
2018-08-16T10:39:42.027Z,1.67
2018-08-16T10:42:11.606Z,1.73
2018-08-16T10:44:41.245Z,1.50
2018-08-16T10:47:10.865Z,1.60
2018-08-16T10:49:40.492Z,2.20
2018-08-16T10:52:10.132Z,1.90
2018-08-16T10:54:39.763Z,1.30
2018-08-16T10:57:09.494Z,2.00
2018-08-16T10:59:39.097Z,1.47
2018-08-16T11:02:08.769Z,1.80
2018-08-16T11:04:38.470Z,1.83
2018-08-16T11:07:08.168Z,1.90
2018-08-16T11:09:37.782Z,1.80
2018-08-16T11:12:07.634Z,2.13
2018-08-16T11:14:37.318Z,1.87
2018-08-16T11:17:07.208Z,2.33
2018-08-16T11:19:36.830Z,2.20
2018-08-16T11:22:07.006Z,1.93
2018-08-16T11:24:36.635Z,1.93
2018-08-16T11:27:07.098Z,1.97
2018-08-16T11:29:36.706Z,2.40
2018-08-16T11:32:06.329Z,2.17
2018-08-16T11:34:36.001Z,2.33
2018-08-16T11:37:05.970Z,1.93
2018-08-16T11:39:35.550Z,2.30
2018-08-16T11:42:05.175Z,2.10
2018-08-16T11:44:34.809Z,2.37
2018-08-16T11:47:04.447Z,2.80
2018-08-16T11:49:34.055Z,2.43
2018-08-16T11:52:03.732Z,2.57
2018-08-16T11:54:33.378Z,2.97
2018-08-16T11:57:03.009Z,2.40
2018-08-16T11:59:32.603Z,3.63
2018-08-16T12:02:02.230Z,2.30
2018-08-16T12:04:31.848Z,2.70
2018-08-16T12:07:01.443Z,2.40
2018-08-16T12:09:31.054Z,2.53
2018-08-16T12:12:00.721Z,2.80
2018-08-16T12:14:30.398Z,2.60
2018-08-16T12:17:00.028Z,2.53
2018-08-16T12:19:29.707Z,2.90
2018-08-16T12:21:59.486Z,2.83
2018-08-16T12:24:29.131Z,2.40
2018-08-16T12:26:58.918Z,3.10
2018-08-16T12:29:28.602Z,2.93
2018-08-16T12:31:58.306Z,2.53
2018-08-16T12:34:27.922Z,2.63
2018-08-16T12:36:57.541Z,3.13
2018-08-16T12:39:27.142Z,3.43
2018-08-16T12:41:56.785Z,2.90
2018-08-16T12:44:26.744Z,2.43
2018-08-16T12:46:56.271Z,2.50
2018-08-16T12:49:25.910Z,2.50
2018-08-16T12:51:55.527Z,2.70
2018-08-16T12:54:25.354Z,3.10
2018-08-16T12:56:55.075Z,2.23
2018-08-16T12:59:24.834Z,3.17
2018-08-16T13:01:54.474Z,2.90
2018-08-16T13:04:24.126Z,2.70
2018-08-16T13:06:53.766Z,2.73
2018-08-16T13:09:23.447Z,3.20
2018-08-16T13:11:52.998Z,3.03
2018-08-16T13:14:22.681Z,2.57
2018-08-16T13:16:52.355Z,2.80
2018-08-16T13:19:21.937Z,2.40
2018-08-16T13:21:51.606Z,3.13
2018-08-16T13:24:21.414Z,2.90
2018-08-16T13:26:51.056Z,2.83
2018-08-16T13:29:20.637Z,2.57
2018-08-16T13:31:50.247Z,2.33
2018-08-16T13:34:19.854Z,2.77
2018-08-16T13:36:49.455Z,2.80
2018-08-16T13:39:19.049Z,3.23
2018-08-16T13:41:50.640Z,2.63
2018-08-16T13:44:20.258Z,2.93
2018-08-16T13:46:49.926Z,2.93
2018-08-16T13:49:19.541Z,3.20
2018-08-16T13:51:49.139Z,2.50
2018-08-16T13:54:18.868Z,2.80
2018-08-16T13:56:48.497Z,2.93
2018-08-16T13:59:18.127Z,2.83
2018-08-16T14:01:47.908Z,2.87
2018-08-16T14:04:17.487Z,2.20
2018-08-16T14:06:47.110Z,2.30
2018-08-16T14:09:16.698Z,2.70
2018-08-16T14:11:46.298Z,3.13
2018-08-16T14:14:15.902Z,2.80
2018-08-16T14:16:45.521Z,2.50
2018-08-16T14:19:15.151Z,3.03
2018-08-16T14:21:44.744Z,3.10
2018-08-16T14:24:14.405Z,3.00
2018-08-16T14:26:44.202Z,2.53
2018-08-16T14:29:13.928Z,3.23
2018-08-16T14:31:43.531Z,2.90
2018-08-16T14:34:13.166Z,2.90
2018-08-16T14:36:42.816Z,3.13
2018-08-16T14:39:13.188Z,2.80
2018-08-16T14:41:43.073Z,2.77
2018-08-16T14:44:12.703Z,2.57
2018-08-16T14:46:42.319Z,2.97
2018-08-16T14:49:11.955Z,2.50
2018-08-16T14:51:41.740Z,3.27
2018-08-16T14:54:11.414Z,2.00
2018-08-16T14:56:41.063Z,2.70
2018-08-16T14:59:10.702Z,2.60
2018-08-16T15:01:40.400Z,3.47
2018-08-16T15:04:10.026Z,3.63
2018-08-16T15:06:39.613Z,2.60
2018-08-16T15:09:11.852Z,3.17
2018-08-16T15:11:41.854Z,2.83
2018-08-16T15:14:11.737Z,3.20
2018-08-16T15:16:41.322Z,3.10
2018-08-16T15:19:11.099Z,3.20
2018-08-16T15:21:40.693Z,2.50
2018-08-16T15:24:10.375Z,2.53
2018-08-16T15:26:39.995Z,2.90
2018-08-16T15:29:09.585Z,3.07
2018-08-16T15:31:39.230Z,2.90
2018-08-16T15:34:09.245Z,3.10
2018-08-16T15:36:39.020Z,3.07
2018-08-16T15:39:09.810Z,4.17
2018-08-16T15:41:39.646Z,3.03
2018-08-16T15:44:10.158Z,2.90
2018-08-16T15:46:40.162Z,3.50
2018-08-16T15:49:09.788Z,3.03
2018-08-16T15:51:39.442Z,3.30
2018-08-16T15:54:09.082Z,3.10
2018-08-16T15:56:38.685Z,2.80
2018-08-16T15:59:08.575Z,3.30
2018-08-16T16:01:38.269Z,3.23
2018-08-16T16:04:08.142Z,2.97
2018-08-16T16:06:37.790Z,3.40
2018-08-16T16:09:09.934Z,3.07
2018-08-16T16:11:39.669Z,2.80
2018-08-16T16:14:09.460Z,2.77
2018-08-16T16:16:40.040Z,3.27
2018-08-16T16:19:09.659Z,2.97
2018-08-16T16:21:39.456Z,3.80
2018-08-16T16:24:09.063Z,3.10
2018-08-16T16:26:38.649Z,3.17
2018-08-16T16:29:08.267Z,3.30
2018-08-16T16:31:37.859Z,3.07
2018-08-16T16:34:08.047Z,2.83
2018-08-16T16:36:37.778Z,3.57
2018-08-16T16:39:11.383Z,3.20
2018-08-16T16:41:41.359Z,2.93
2018-08-16T16:44:10.953Z,3.10
2018-08-16T16:46:40.625Z,3.17
2018-08-16T16:49:10.253Z,3.30
2018-08-16T16:51:39.921Z,4.10
2018-08-16T16:54:09.620Z,3.57
2018-08-16T16:56:39.461Z,3.00
2018-08-16T16:59:09.148Z,3.17
2018-08-16T17:01:38.818Z,3.67
2018-08-16T17:04:08.535Z,3.50
2018-08-16T17:06:38.452Z,3.37
2018-08-16T17:09:10.718Z,3.53
2018-08-16T17:11:40.672Z,3.03
2018-08-16T17:14:10.495Z,3.27
2018-08-16T17:16:40.404Z,3.10
2018-08-16T17:19:10.293Z,3.37
2018-08-16T17:21:39.926Z,3.50
2018-08-16T17:24:09.956Z,3.40
2018-08-16T17:26:39.566Z,3.10
2018-08-16T17:29:09.453Z,3.70
2018-08-16T17:31:39.026Z,3.17
2018-08-16T17:34:08.637Z,3.70
2018-08-16T17:36:38.370Z,3.80
2018-08-16T17:39:09.083Z,3.20
2018-08-16T17:41:38.746Z,3.70
2018-08-16T17:44:08.712Z,3.90
2018-08-16T17:46:38.331Z,3.17
2018-08-16T17:49:07.950Z,3.57
2018-08-16T17:51:37.538Z,3.80
2018-08-16T17:54:07.332Z,8.50
2018-08-16T17:56:36.890Z,4.60
2018-08-16T17:59:06.581Z,3.87
2018-08-16T18:01:36.192Z,3.87
2018-08-16T18:04:05.899Z,3.63
2018-08-16T18:06:35.570Z,3.83
2018-08-16T18:09:06.967Z,3.97
2018-08-16T18:11:36.588Z,3.50
2018-08-16T18:14:06.246Z,4.33
2018-08-16T18:16:35.946Z,4.00
2018-08-16T18:19:05.703Z,3.80
2018-08-16T18:21:35.512Z,4.40
2018-08-16T18:24:05.346Z,3.97
2018-08-16T18:29:19.933Z,8.33
2018-08-16T18:31:49.917Z,6.10
2018-08-16T18:34:20.226Z,6.47
2018-08-16T18:36:49.996Z,15.00
2018-08-16T18:39:19.718Z,19.50
2018-08-16T18:41:49.310Z,9.47
2018-08-16T18:44:18.903Z,5.33
2018-08-16T18:46:48.675Z,12.80
2018-08-16T18:49:18.401Z,11.87
2018-08-16T18:51:47.985Z,18.37
2018-08-16T18:54:17.638Z,13.80
2018-08-16T18:56:47.415Z,6.37
2018-08-16T18:59:17.022Z,13.93
2018-08-16T19:01:46.661Z,10.07
2018-08-16T19:04:16.352Z,16.20
2018-08-16T19:06:45.990Z,25.97
2018-08-16T19:09:15.597Z,9.47
2018-08-16T19:11:45.210Z,6.10
2018-08-16T19:14:14.765Z,6.17
2018-08-16T19:16:44.478Z,6.07
2018-08-16T19:19:14.074Z,5.60
2018-08-16T19:21:43.893Z,6.07
2018-08-16T19:24:13.466Z,6.07
2018-08-16T19:26:43.090Z,5.60
2018-08-16T19:29:12.775Z,6.60
2018-08-16T19:31:42.366Z,5.70
2018-08-16T19:34:12.073Z,6.40
2018-08-16T19:36:41.637Z,6.30
2018-08-16T19:39:12.799Z,5.90
2018-08-16T19:41:42.397Z,6.13
2018-08-16T19:44:11.979Z,5.97
2018-08-16T19:46:41.698Z,6.40
2018-08-16T19:49:11.452Z,6.40
2018-08-16T19:51:41.098Z,6.43
2018-08-16T19:54:10.758Z,6.27
2018-08-16T19:56:40.422Z,7.43
2018-08-16T19:59:10.049Z,6.40
2018-08-16T20:01:39.775Z,6.10
2018-08-16T20:04:09.412Z,6.80
2018-08-16T20:06:39.365Z,5.90
2018-08-16T20:09:10.938Z,7.13
2018-08-16T20:11:40.560Z,6.90
2018-08-16T20:14:10.200Z,6.10
2018-08-16T20:16:39.940Z,6.57
2018-08-16T20:19:09.526Z,6.00
2018-08-16T20:21:39.134Z,7.00
2018-08-16T20:24:08.794Z,6.30
2018-08-16T20:26:38.403Z,5.87
2018-08-16T20:29:08.001Z,6.70
2018-08-16T20:31:37.632Z,6.60
2018-08-16T20:34:07.706Z,6.87
2018-08-16T20:36:37.313Z,6.50
2018-08-16T20:39:09.128Z,7.20
2018-08-16T20:41:38.734Z,6.33
2018-08-16T20:44:08.742Z,6.77
2018-08-16T20:46:38.421Z,5.63
2018-08-16T20:49:08.424Z,6.27
2018-08-16T20:51:38.270Z,6.20
2018-08-16T20:54:07.894Z,6.60
2018-08-16T20:56:37.514Z,6.37
2018-08-16T20:59:07.543Z,7.27
2018-08-16T21:01:37.152Z,6.40
2018-08-16T21:04:06.921Z,7.30
2018-08-16T21:06:36.628Z,8.20
2018-08-16T21:09:09.311Z,7.00
2018-08-16T21:11:39.314Z,7.43
2018-08-16T21:14:09.149Z,6.80
2018-08-16T21:16:38.836Z,6.50
2018-08-16T21:19:08.417Z,6.07
2018-08-16T21:21:38.045Z,6.60
2018-08-16T21:24:07.911Z,6.07
2018-08-16T21:26:37.593Z,7.53
2018-08-16T21:29:07.201Z,6.00
2018-08-16T21:31:36.960Z,6.43
2018-08-16T21:34:06.728Z,7.40
2018-08-16T21:36:36.336Z,5.77
2018-08-16T21:39:09.393Z,6.20
2018-08-16T21:41:39.213Z,5.30
2018-08-16T21:44:09.713Z,5.40
2018-08-16T21:46:39.290Z,5.90
2018-08-16T21:49:08.933Z,5.40
2018-08-16T21:51:38.594Z,5.83
2018-08-16T21:54:08.551Z,6.67
2018-08-16T21:56:38.361Z,5.87
2018-08-16T21:59:07.997Z,5.20
2018-08-16T22:01:37.609Z,5.70
2018-08-16T22:04:07.207Z,5.10
2018-08-16T22:06:53.838Z,5.23
2018-08-16T22:09:23.489Z,5.40
2018-08-16T22:11:53.073Z,6.10
2018-08-16T22:14:22.648Z,5.40
2018-08-16T22:16:52.230Z,5.30
2018-08-16T22:19:21.799Z,5.67
2018-08-16T22:21:51.389Z,5.37
2018-08-16T22:24:20.978Z,5.63
2018-08-16T22:26:50.576Z,5.30
2018-08-16T22:29:20.158Z,4.90
2018-08-16T22:31:49.705Z,5.33
2018-08-16T22:34:19.294Z,5.10
2018-08-16T22:36:48.848Z,5.20
2018-08-16T22:39:18.477Z,4.83
2018-08-16T22:41:48.035Z,5.13
2018-08-16T22:44:17.622Z,4.73
2018-08-16T22:46:47.207Z,5.37
2018-08-16T22:49:16.810Z,5.80
2018-08-16T22:51:46.433Z,4.93
2018-08-16T22:54:15.926Z,5.07
2018-08-16T22:56:45.585Z,5.03
2018-08-16T22:59:15.154Z,5.23
2018-08-16T23:01:44.782Z,4.90
2018-08-16T23:04:14.346Z,5.20
2018-08-16T23:06:43.981Z,5.60
2018-08-16T23:09:13.668Z,4.73
2018-08-16T23:11:43.246Z,4.83
2018-08-16T23:14:12.924Z,4.50
2018-08-16T23:16:42.502Z,5.37
2018-08-16T23:19:12.145Z,5.70
2018-08-16T23:21:41.702Z,4.33
2018-08-16T23:24:11.228Z,5.47
2018-08-16T23:26:40.863Z,6.00
2018-08-16T23:29:10.605Z,4.50
2018-08-16T23:31:40.333Z,4.70
2018-08-16T23:34:09.936Z,5.13
2018-08-16T23:36:39.531Z,5.27
2018-08-16T23:39:09.246Z,4.30
2018-08-16T23:41:38.837Z,5.33
2018-08-16T23:44:08.527Z,5.10
2018-08-16T23:46:38.164Z,4.70
2018-08-16T23:49:07.828Z,4.30
2018-08-16T23:51:37.437Z,4.27
2018-08-16T23:54:07.083Z,4.30
2018-08-16T23:56:36.793Z,4.77
2018-08-16T23:59:06.393Z,4.53
